Oscar Dyson — WTEP — position and weather

sailwx.info

Track history (hours):
 
Tides and Currents Weather Stations Pressure Air Temp Water Temp Dewpoint Dewpoint Depression Visibility Wind Speed Wind Dir Waves Ship Positions

Oceanographic research ship Oscar Dyson (USA)

Ship's website: http://www.moc.noaa.gov/od/

Detailed information on ship capabilities available from University of Delaware's Ocean Information Center and ARCUS's ALIAS (Arctic Logistics Information and Support) project.

Last reported at 2016-Feb-09 06:00 UTC. Time now 2016-Feb-09 07:48 UTC.
Position N 59°24' W 149°24'.

Type: Ship. MMSI: 369959000.

Wind from 150 at 13 knots

Barometer 1010.5 mb
Air temperature 5.5 ° C
Dewpoint 2.3 ° C
Water temperature 5.6 ° C

Date/timePositionNaut miles runAvg speedWind from/ knotsBaromVisibWave heightAir tempDewpointWater temp
2016-Feb-09 06:00N 59°24' W 149°24'0 0.0 150 / 131010.5 5.5 2.3 5.6
2016-Feb-09 05:53N 59°24' W 149°24'1213.6 150 / 12 5.5 5.7
2016-Feb-09 05:00N 59°36' W 149°24'0 0.0 160 / 121010.1 5.9 3.3 5.8
2016-Feb-09 04:54N 59°36' W 149°24'1213.3 160 / 12 6.0 5.9
2016-Feb-09 04:00N 59°48' W 149°24'672.0 060 / 161009.6 3.8 1.7 5.9
2016-Feb-09 03:55N 59°42' W 149°24'1213.5 060 / 16 3.9 5.9
2016-Feb-09 03:00N 59°54' W 149°18'336.1 360 / 51010.1 3.7 1.5-4.9
2016-Feb-09 02:55N 59°54' W 149°24'1213.1 360 / 6 3.7 4.9
2016-Feb-09 02:00N 60°06' W 149°24'690.0 050 / 41009.6 3.3 1.8 5.1
2016-Feb-09 01:56N 60°00' W 149°24'6 6.4 060 / 6 3.1 5.0
2016-Feb-09 01:00N 60°06' W 149°24'0 0.0 070 / 51009.4 2.4 0.2 5.4
2016-Feb-09 00:57N 60°06' W 149°24'0 0.0 060 / 5 2.2 5.4
2016-Feb-09 00:00N 60°06' W 149°24'0 0.0 190 / 51009.2 3.9 0.4 5.4
2016-Feb-08 16:00N 60°06' W 149°24'0 0.0 330 / 51008.5 1.0 0.4 5.9
2016-Feb-08 15:00N 60°06' W 149°24'0 0.0 350 / 51008.0 1.6 1.0 6.0
2016-Feb-08 14:43N 60°06' W 149°24'0 0.0 330 / 7 1.4 5.8
2016-Feb-08 14:00N 60°06' W 149°24'0 0.0 050 / 91006.9 1.5 0.9 5.8
2016-Feb-08 13:44N 60°06' W 149°24'6 6.1 010 / 5 1.6 5.3
2016-Feb-08 12:45N 60°00' W 149°24'0 0.0 360 / 8 1.6 5.0
2016-Feb-08 11:00N 60°00' W 149°24'0 0.0 310 / 21005.8 0.5-0.5 4.7
2016-Feb-08 10:47N 60°00' W 149°24'6 7.7 360 / 2 0.7 3.7
2016-Feb-08 10:00N 60°06' W 149°24'731.0 130 / 21005.6 0.3-0.8 5.0
2016-Feb-08 09:47N 60°00' W 149°18'3 3.8 170 / 2 0.3 4.9
2016-Feb-08 09:00N 60°00' W 149°24'0 0.0 010 / 41005.1 1.0-0.6 5.4
2016-Feb-08 08:48N 60°00' W 149°24'3 1.7 360 / 4 1.1 5.1
2016-Feb-08 07:00N 60°00' W 149°18'318.0 330 / 131002.7 5.4 3.8 -5.2
2016-Feb-08 06:50N 60°00' W 149°24'0 0.0 340 / 11 3.0 4.8
2016-Feb-08 06:00N 60°00' W 149°24'320.0 030 / 81004.6 2.8-1.1 5.9
2016-Feb-08 05:51N 60°00' W 149°18'0 0.0 030 / 9 2.7 5.9
2016-Feb-08 03:52N 60°00' W 149°18'7 7.7 350 / 16 4.3 5.9
2016-Feb-08 03:00N 60°06' W 149°24'757.5 010 / 161003.4 4.0-1.8 5.9
2016-Feb-08 02:53N 60°00' W 149°18'3 3.4 010 / 15 3.8 5.9
2016-Feb-08 02:00N 60°00' W 149°24'0 0.0 340 / 221003.0 4.5-2.5 5.0
2016-Feb-08 01:54N 60°00' W 149°24'0 0.0 340 / 20 4.5 5.0
2016-Feb-08 01:00N 60°00' W 149°24'336.0 340 / 211002.8 4.4-2.4 5.8
2016-Feb-08 00:55N 60°00' W 149°18'3 3.3 350 / 23 4.3 5.8
2016-Feb-08 00:00N 60°00' W 149°24'0 0.0 340 / 111002.5 4.5-2.5 5.5
2016-Feb-07 23:00N 60°00' W 149°24'345.0 340 / 191004.2 3.9-3.0 5.6
2016-Feb-07 22:56N 60°00' W 149°18'6 6.4 350 / 19 4.0 5.5
2016-Feb-07 22:00N 59°54' W 149°18'360.2 010 / 131002.8 5.4 0.5 4.9-3.4-5.2
2016-Feb-07 21:57N 59°54' W 149°24'9 9.0 360 / 17 4.9 5.1
2016-Feb-07 21:00N 59°48' W 149°12'6180.0 080 / 241004.7 5.5-2.9 6.1
2016-Feb-07 20:58N 59°42' W 149°12'1212.5 080 / 24 5.6 6.2
2016-Feb-07 20:00N 59°42' W 148°48'0 0.0 060 / 281004.6 4.4-0.5 6.4
2016-Feb-07 19:59N 59°42' W 148°48'1413.8 060 / 27 4.4 6.4
2016-Feb-07 19:00N 59°36' W 148°24'0 0.0 050 / 321004.4 4.4 0.4 6.3
2016-Feb-07 18:59N 59°36' W 148°24'4314.2 050 / 32 4.3 6.3
2016-Feb-07 16:00N 59°36' W 147°00'3 9.1 060 / 311007.0 4.6-0.1 6.6
2016-Feb-07 15:40N 59°36' W 146°54'913.7 070 / 28 4.8 6.5
2016-Feb-07 15:00N 59°36' W 146°36'619.2 070 / 301008.5 4.7 1.1 6.9
2016-Feb-07 14:41N 59°36' W 146°24'913.3 070 / 26 5.2 6.9
2016-Feb-07 14:00N 59°36' W 146°06'3618.2 070 / 281009.8 5.1 1.0 6.6
2016-Feb-07 12:00N 59°36' W 144°54'311.4 090 / 191010.610.8 1.0 5.0 0.4-6.3
2016-Feb-07 11:44N 59°36' W 145°00'912.4 090 / 19 5.1 6.2
2016-Feb-07 11:00N 59°36' W 144°42'311.4 090 / 221013.3 5.0 0.9 6.9
2016-Feb-07 10:44N 59°36' W 144°36'1212.4 090 / 18 4.9 6.9
2016-Feb-07 09:45N 59°36' W 144°12'1621.7 090 / 26 5.8 6.8
2016-Feb-07 09:00N 59°42' W 143°42'313.0 100 / 241015.110.8 1.0 5.5 -6.6
2016-Feb-07 08:46N 59°42' W 143°48'2514.1 100 / 25 5.5 6.6
2016-Feb-07 07:00N 59°48' W 143°00'733.6 090 / 221018.2 4.3 2.0 6.9
2016-Feb-07 06:48N 59°42' W 142°54'1113.6 090 / 19 4.3 7.1
2016-Feb-07 06:00N 59°48' W 142°36'736.6 090 / 191018.6 4.0 2.4 7.0
2016-Feb-07 05:49N 59°42' W 142°30'1515.1 090 / 21 3.8 7.0
2016-Feb-07 04:49N 59°42' W 142°00'1212.3 080 / 25 3.3 7.0
2016-Feb-07 03:50N 59°42' W 141°36'1619.6 090 / 24 3.4 6.8
2016-Feb-07 03:00N 59°36' W 141°06'320.2 080 / 241019.9 5.4 3.2 1.6-6.4
2016-Feb-07 02:51N 59°36' W 141°12'2814.2 080 / 23 3.3 6.4
2016-Feb-07 00:53N 59°30' W 140°18'910.3 120 / 16 4.4 6.8
2016-Feb-07 00:00N 59°30' W 140°00'9 8.5 120 / 221018.2 4.1 2.5 6.4
2016-Feb-06 23:00N 59°36' W 139°48'660.0 130 / 181018.3 3.2 1.9 5.6
2016-Feb-06 22:54N 59°30' W 139°48'0 0.0 130 / 18 3.1 5.6
2016-Feb-06 22:00N 59°30' W 139°48'336.5 130 / 101017.9 2.2 1.4 5.9
2016-Feb-06 21:55N 59°30' W 139°42'3 3.3 130 / 10 2.3 5.9
2016-Feb-06 21:00N 59°30' W 139°48'345.7 120 / 61017.1 1.7 1.0 5.5
2016-Feb-06 20:56N 59°30' W 139°42'3 1.6 120 / 8 1.9 5.5
2016-Feb-06 19:00N 59°30' W 139°48'391.4 140 / 61014.6 1.5 0.9 5.4
2016-Feb-06 18:58N 59°30' W 139°42'3 3.2 130 / 6 1.6 5.4
2016-Feb-06 18:00N 59°30' W 139°48'391.4 120 / 71013.2 0.8 0.2 5.5
2016-Feb-06 17:58N 59°30' W 139°42'3 3.2 110 / 7 0.9 5.5
2016-Feb-06 17:00N 59°30' W 139°48'3182.7 150 / 71011.8 0.8 0.2 5.8
2016-Feb-06 16:59N 59°30' W 139°42'0 0.0 130 / 5 1.0 5.8
2016-Feb-06 16:00N 59°30' W 139°42'3 3.0 120 / 111010.4 0.8 0.2 5.6
2016-Feb-06 15:00N 59°30' W 139°48'0 0.0 120 / 101009.4 0.9 0.2 5.7
2016-Feb-06 14:00N 59°30' W 139°48'0 0.0 110 / 111008.7 1.0 0.1 5.6
2016-Feb-06 13:00N 59°30' W 139°48'3 9.1 110 / 121007.7 1.0-0.0 5.7
2016-Feb-06 12:40N 59°30' W 139°42'3 4.6 120 / 10 1.1 5.6
2016-Feb-06 12:00N 59°30' W 139°36'3 9.6 090 / 131007.2 5.4 0.5 1.8 0.6-5.8
2016-Feb-06 11:41N 59°30' W 139°42'9 3.4 090 / 12 1.9 5.8
2016-Feb-06 09:00N 59°30' W 140°00'311.4 100 / 161004.2 2.2 1.4 6.5
2016-Feb-06 08:44N 59°30' W 139°54'7 9.2 090 / 14 2.4 6.4
2016-Feb-06 08:00N 59°24' W 139°48'311.5 060 / 151003.7 1.7 0.7 6.2
2016-Feb-06 07:44N 59°24' W 139°42'1723.4 070 / 17 1.7 6.4
2016-Feb-06 07:00N 59°12' W 139°18'312.3 140 / 131001.1 5.4 3.7 -6.8
2016-Feb-06 06:45N 59°12' W 139°24'2814.3 140 / 15 4.5 6.6
2016-Feb-06 04:47N 58°54' W 138°42'1114.1 130 / 13 4.2 6.8
2016-Feb-06 04:00N 58°48' W 138°24'0 0.0 120 / 121001.4 3.4 1.6 6.6
2016-Feb-06 03:48N 58°48' W 138°24'1113.9 120 / 13 3.2 6.6
2016-Feb-06 03:00N 58°42' W 138°06'0 0.0 040 / 91001.0 3.0 0.9 6.5
2016-Feb-06 02:49N 58°42' W 138°06'1113.6 050 / 9 3.6 6.5
2016-Feb-06 02:00N 58°36' W 137°48'2613.0 110 / 121000.7 3.2 1.4 6.4
2016-Feb-06 00:00N 58°18' W 137°12'2210.6 040 / 3999.9 3.2 1.4 6.1
2016-Feb-05 21:53N 58°06' W 136°36'1517.3 200 / 11 1.8 6.3
2016-Feb-05 21:00N 58°18' W 136°18'0 0.0 230 / 10999.3 3.6 1.8 6.1
2016-Feb-05 20:54N 58°18' W 136°18'410.2 220 / 10 3.6 6.1
2016-Feb-05 20:30N 58°19' W 136°11'917.3
2016-Feb-05 20:00N 58°18' W 135°54'0 0.0 160 / 6998.9 4.4 2.1 5.6
2016-Feb-05 19:54N 58°18' W 135°54'412.3 190 / 7 4.5 5.6
2016-Feb-05 19:33N 58°18' W 135°46'1323.6
2016-Feb-05 19:00N 58°12' W 135°24'337.9 150 / 13997.0 5.4 3.2 1.9-5.3
2016-Feb-05 18:55N 58°12' W 135°30'6 6.5 150 / 11 3.2 5.3
2016-Feb-05 18:00N 58°06' W 135°30'347.6 190 / 6998.7 2.2 1.5 5.1
2016-Feb-05 17:56N 58°06' W 135°24'3 3.4 190 / 7 2.4 5.1
2016-Feb-05 17:00N 58°06' W 135°30'6120.0 230 / 8998.2 2.4 1.7 5.5
2016-Feb-05 16:57N 58°00' W 135°30'6 6.3 220 / 8 2.4 5.5
2016-Feb-05 16:00N 58°06' W 135°30'6120.0 230 / 6997.9 2.4 1.7 4.8
2016-Feb-05 15:57N 58°00' W 135°30'6 6.3 290 / 6 2.0 5.0
2016-Feb-05 15:00N 58°06' W 135°30'6180.0 220 / 8997.7 3.1 2.4 5.1
2016-Feb-05 14:58N 58°00' W 135°30'6 6.2 220 / 11 2.9 5.0
2016-Feb-05 14:00N 58°06' W 135°30'6360.0 210 / 8997.4 2.7 2.1 5.3
2016-Feb-05 13:59N 58°00' W 135°30'0 0.0 200 / 7 2.8 5.0
2016-Feb-05 13:00N 58°00' W 135°30'3 3.2 210 / 4997.0 3.0 2.4 5.0
2016-Feb-05 12:00N 58°00' W 135°24'7 6.8 210 / 5994.8 5.4 0.5 2.6 2.3-5.3
2016-Feb-05 11:00N 58°06' W 135°30'0 0.0 240 / 6996.2 2.7 2.3 5.5
2016-Feb-05 10:00N 58°06' W 135°30'618.0 170 / 3995.4 2.7 2.1 5.4
2016-Feb-05 09:40N 58°00' W 135°30'6 9.0 230 / 5 2.8 5.4
2016-Feb-05 09:00N 58°06' W 135°30'618.9 200 / 4994.9 3.3 2.6 5.5
2016-Feb-05 08:41N 58°00' W 135°30'6 3.6 220 / 3 3.3 5.4
2016-Feb-05 07:00N 58°06' W 135°30'0 0.0 180 / 2994.7 3.8 2.9 5.6
2016-Feb-05 06:00N 58°06' W 135°30'622.5 300 / 3995.1 3.4 2.5 5.8
2016-Feb-05 05:44N 58°00' W 135°30'6 8.2 300 / 4 3.7 5.8
2016-Feb-05 05:00N 58°06' W 135°30'622.5 310 / 3995.4 3.8 2.9 5.6
2016-Feb-05 04:44N 58°00' W 135°30'3 1.8 310 / 5 3.9 5.6
2016-Feb-05 03:00N 58°00' W 135°24'313.6 340 / 2 5.1 -5.4
2016-Feb-05 02:46N 58°00' W 135°30'0 0.0 350 / 2 5.0 5.4
2016-Feb-05 01:47N 58°00' W 135°30'6 7.7 040 / 2 4.9 5.4
2016-Feb-05 01:00N 58°06' W 135°30'630.0 996.0 5.1 3.0 5.5
2016-Feb-05 00:48N 58°00' W 135°30'6 7.5 270 / 2 5.1 5.4
2016-Feb-05 00:00N 58°06' W 135°30'9 4.0 220 / 8995.6 5.5 2.6 5.4
2016-Feb-04 21:50N 58°12' W 135°18'512.1 110 / 25 5.7 5.4
2016-Feb-04 21:23N 58°15' W 135°27'4 9.5
2016-Feb-04 21:00N 58°18' W 135°30'640.0 110 / 24994.3 5.6 2.4 5.4
2016-Feb-04 20:51N 58°12' W 135°30'3 5.3 110 / 24 5.6 5.4
2016-Feb-04 20:15N 58°15' W 135°28'3 8.2
2016-Feb-04 19:52N 58°12' W 135°30'3 1.7 110 / 24 6.2 5.4
2016-Feb-04 18:00N 58°12' W 135°24'758.1 100 / 23995.0 5.6 2.5 5.5
2016-Feb-04 17:53N 58°06' W 135°18'7 7.7 100 / 23 5.7 5.5
2016-Feb-04 17:00N 58°12' W 135°24'767.8 090 / 24995.7 4.6 2.1 5.5
2016-Feb-04 16:54N 58°06' W 135°18'7 7.5 090 / 22 4.6 5.5
2016-Feb-04 16:00N 58°12' W 135°24'781.4 070 / 22996.6 4.2 2.4 5.5
2016-Feb-04 15:55N 58°06' W 135°18'7 7.4 070 / 24 4.2 5.5
2016-Feb-04 15:00N 58°12' W 135°24'690.0 070 / 22997.8 4.5 2.2 5.4
2016-Feb-04 14:56N 58°06' W 135°24'3 3.2 070 / 23 4.3 5.4
2016-Feb-04 13:57N 58°06' W 135°18'4 6.9 070 / 22 4.6 5.4
2016-Feb-04 13:18N 58°09' W 135°24'3 9.0
2016-Feb-04 13:00N 58°12' W 135°24'6120.0 080 / 211000.1 4.3 1.6 5.4
2016-Feb-04 12:57N 58°06' W 135°24'9 9.2 090 / 19 4.3 5.4
2016-Feb-04 12:00N 58°12' W 135°12'0 0.0 060 / 181001.4 4.4 1.7 5.4
2016-Feb-04 11:58N 58°12' W 135°12'9 9.0 060 / 18 4.7 5.4
2016-Feb-04 11:00N 58°06' W 135°00'0 0.0 050 / 71002.2 4.7 2.2 5.3
2016-Feb-04 10:59N 58°06' W 135°00'9 8.9 070 / 9 4.8 5.3
2016-Feb-04 10:00N 58°00' W 134°48'1212.4 050 / 131002.2 2.9 1.4 5.3
2016-Feb-04 09:00N 57°48' W 134°42'18 6.0 130 / 131000.310.8 0.5 5.1 -5.2
2016-Feb-04 06:00N 57°30' W 134°42'620.0 190 / 81001.9 3.5 2.6 4.9
2016-Feb-04 05:42N 57°24' W 134°42'6 8.6 180 / 7 3.5 4.9
2016-Feb-04 05:00N 57°18' W 134°42'24 8.1 200 / 121001.6 3.2 2.4 5.1
2016-Feb-04 02:00N 56°54' W 134°36'727.4 340 / 31001.4 2.4 1.7 5.6
2016-Feb-04 01:45N 56°48' W 134°30'0 0.0 330 / 3 2.3 5.8
2016-Feb-04 01:00N 56°48' W 134°30'729.3 320 / 31001.1 0.9 0.1 5.5
2016-Feb-04 00:46N 56°42' W 134°24'7 8.9 340 / 3 0.9 5.5
2016-Feb-04 00:00N 56°36' W 134°30'19 9.6 010 / 51000.6 1.6 0.3 6.0
2016-Feb-03 22:00N 56°18' W 134°42'734.3 150 / 10999.6 4.3 2.1 6.3
2016-Feb-03 21:48N 56°12' W 134°36'7 8.6 180 / 10 4.3 6.3
2016-Feb-03 21:00N 56°18' W 134°42'737.4 160 / 10999.3 4.9 2.1 6.4
2016-Feb-03 20:49N 56°12' W 134°36'0 0.0 140 / 7 5.0 6.4
2016-Feb-03 19:50N 56°12' W 134°36'7 8.2 140 / 7 5.0 6.4
2016-Feb-03 19:00N 56°18' W 134°42'745.8 120 / 12999.9 4.8 2.2 6.4
2016-Feb-03 18:51N 56°12' W 134°36'7 8.1 110 / 13 4.9 6.4
2016-Feb-03 18:00N 56°18' W 134°42'745.8 100 / 141000.4 5.0 2.2 6.4
2016-Feb-03 17:51N 56°12' W 134°36'7 8.1 110 / 15 5.1 6.4
2016-Feb-03 17:00N 56°18' W 134°42'751.5 100 / 171001.0 5.1 1.9 6.4
2016-Feb-03 16:52N 56°12' W 134°36'7 7.9 110 / 17 5.1 6.4
2016-Feb-03 16:00N 56°18' W 134°42'758.8 110 / 151001.8 5.3 1.8 6.4
2016-Feb-03 15:53N 56°12' W 134°36'3 3.8 110 / 15 5.3 6.4
2016-Feb-03 15:00N 56°12' W 134°30'333.4 110 / 131003.1 5.2 2.1-6.3
2016-Feb-03 14:54N 56°12' W 134°36'6 6.7 100 / 16 5.2 6.3
2016-Feb-03 14:00N 56°18' W 134°36'672.0 100 / 201004.0 5.6 1.8 6.4
2016-Feb-03 13:55N 56°12' W 134°36'6 6.5 100 / 18 5.6 6.4
2016-Feb-03 13:00N 56°18' W 134°36'672.0 100 / 151005.0 5.4 1.9 6.3
2016-Feb-03 12:55N 56°12' W 134°36'6 6.5 100 / 15 5.4 6.3
2016-Feb-03 12:00N 56°18' W 134°36'690.0 110 / 151006.0 5.9 1.5 6.4
2016-Feb-03 11:56N 56°12' W 134°36'6 6.4 110 / 16 5.7 6.4
2016-Feb-03 11:00N 56°18' W 134°36'6120.0 120 / 131007.0 5.9 1.2 6.3
2016-Feb-03 10:57N 56°12' W 134°36'6 6.3 120 / 13 5.9 6.3
2016-Feb-03 10:00N 56°18' W 134°36'6180.0 110 / 151007.7 5.9 1.4 6.4
2016-Feb-03 09:58N 56°12' W 134°36'6 6.2 100 / 12 5.9 6.4
2016-Feb-03 09:00N 56°18' W 134°36'6360.0 120 / 151008.5 5.8 1.7 6.4
2016-Feb-03 08:59N 56°12' W 134°36'3 3.4 110 / 16 5.7 6.4
2016-Feb-03 08:00N 56°12' W 134°30'9 9.0 110 / 231008.6 5.6 1.7 6.9
2016-Feb-03 07:00N 56°06' W 134°18'1514.7 100 / 261009.1 5.2 2.2 6.8
2016-Feb-03 06:00N 56°00' W 133°54'0 0.0 110 / 201010.2 5.2 1.9 6.6
2016-Feb-03 05:52N 56°00' W 133°54'1214.4 110 / 21 5.2 6.6
2016-Feb-03 05:00N 56°12' W 133°48'0 0.0 120 / 251011.0 5.3 1.6 6.6
2016-Feb-03 04:53N 56°12' W 133°48'1617.7 120 / 25 5.2 6.6
2016-Feb-03 04:00N 56°24' W 133°30'660.0 100 / 191012.9 5.4 1.3 6.5
2016-Feb-03 03:54N 56°18' W 133°30'1212.9 100 / 18 5.1 6.5
2016-Feb-03 03:00N 56°24' W 133°12'672.0 130 / 181014.1 6.3 1.2 6.6
2016-Feb-03 02:55N 56°18' W 133°12'1010.9 140 / 18 6.0 6.6
2016-Feb-03 02:00N 56°18' W 132°54'690.0 120 / 131014.7 5.4 1.0 6.5
2016-Feb-03 01:56N 56°12' W 132°54'7 7.4 120 / 13 5.4 6.5
2016-Feb-03 01:00N 56°06' W 132°48'0 0.0 140 / 231014.8 5.5 1.3 6.4
2016-Feb-03 00:57N 56°06' W 132°48'7 7.2 140 / 23 5.5 6.4
2016-Feb-03 00:00N 56°00' W 132°42'1615.7 120 / 221016.0 4.7 1.9 6.5
2016-Feb-02 23:00N 55°48' W 132°24'0 0.0 090 / 171016.7 4.4 1.7 6.4
2016-Feb-02 22:58N 55°48' W 132°24'1212.9 100 / 20 4.1 6.3
2016-Feb-02 22:00N 55°36' W 132°18'0 0.0 140 / 171017.0 4.5 1.9 6.4
2016-Feb-02 21:59N 55°36' W 132°18'1818.4 140 / 17 4.8 6.5
2016-Feb-02 21:00N 55°24' W 131°54'3 3.4 110 / 191017.7 5.4 5.7 -6.1
2016-Feb-02 20:00N 55°24' W 131°48'9 9.1 120 / 31018.4 4.0 0.9 6.3
2016-Feb-02 19:00N 55°18' W 131°36'720.7 100 / 141018.7 4.2 1.9 6.7
2016-Feb-02 18:40N 55°12' W 131°30'6 9.0 070 / 13 3.4 5.8
2016-Feb-02 18:00N 55°18' W 131°30'310.8 060 / 91018.9 3.5 1.7 6.4
2016-Feb-02 17:41N 55°18' W 131°24'3 5.0 060 / 8 3.5 6.5
2016-Feb-02 17:00N 55°18' W 131°30'7 3.4 060 / 51019.2 2.7 1.0 6.9
2016-Feb-02 15:00N 55°18' W 131°18'312.1 040 / 91017.6 5.4 2.9 1.0-6.8
2016-Feb-02 14:43N 55°18' W 131°24'3 2.0 040 / 8 2.8 6.9
2016-Feb-02 13:00N 55°18' W 131°30'7 6.8 040 / 91019.9 2.8 1.3 7.4
2016-Feb-02 12:00N 55°18' W 131°18'314.6 040 / 51018.4 5.4 2.7 1.2-7.0
2016-Feb-02 11:46N 55°18' W 131°24'3 4.5 050 / 4 2.6 7.0
2016-Feb-02 11:00N 55°18' W 131°30'315.8 090 / 41020.1 2.5 1.0 6.5
2016-Feb-02 10:47N 55°18' W 131°24'3 4.4 070 / 5 2.6 6.3
2016-Feb-02 10:00N 55°18' W 131°30'317.1 040 / 111020.0 2.6 1.3 7.0
2016-Feb-02 09:48N 55°18' W 131°24'3 4.3 040 / 10 2.5 7.2
2016-Feb-02 09:00N 55°18' W 131°18'317.1 050 / 51018.2 5.4 4.2 1.1-6.9
2016-Feb-02 08:48N 55°18' W 131°24'7 3.8 030 / 6 2.7 6.8
2016-Feb-02 07:00N 55°12' W 131°18'741.5 300 / 21019.7 3.4 1.8 5.5
2016-Feb-02 06:50N 55°06' W 131°12'3 4.1 260 / 3 3.4 5.5
2016-Feb-02 06:00N 55°06' W 131°06'0 0.0 030 / 101019.4 3.3 1.5 6.1
2016-Feb-02 05:51N 55°06' W 131°06'6 7.1 030 / 9 3.3 6.0
2016-Feb-02 05:00N 55°00' W 131°06'325.8 070 / 91019.2 3.4 1.8 5.8
2016-Feb-02 04:52N 55°00' W 131°00'6 6.9 070 / 9 3.5 5.7
2016-Feb-02 04:00N 54°54' W 131°00'651.4 100 / 71019.1 4.6 1.9 6.6
2016-Feb-02 03:53N 54°48' W 131°00'910.4 100 / 7 4.5 6.6
2016-Feb-02 03:00N 54°42' W 130°48'0 0.0 060 / 121019.1 4.2 2.2 7.5
2016-Feb-02 02:53N 54°42' W 130°48'910.4 060 / 13 4.1 7.5
2016-Feb-02 02:00N 54°36' W 130°36'769.4 110 / 71019.1 5.3 1.3 6.9
2016-Feb-02 01:54N 54°30' W 130°30'1213.9 100 / 7 5.3 6.9
2016-Feb-02 01:00N 54°18' W 130°36'1413.9 110 / 91019.1 5.2 1.2 7.0
2016-Feb-02 00:00N 54°06' W 130°24'9 9.3 110 / 121019.2 4.7 1.7 7.1
2016-Feb-01 23:00N 54°00' W 130°12'1413.9 130 / 131019.5 5.0 1.7 6.3
2016-Feb-01 22:00N 53°48' W 130°00'4411.0 140 / 131019.8 4.2 2.4 6.4
2016-Feb-01 18:00N 53°18' W 129°06'2210.8 070 / 61019.5 3.7 2.5 6.5
2016-Feb-01 16:00N 53°06' W 128°36'722.1 100 / 71019.8 2.5 1.7 6.6
2016-Feb-01 15:41N 53°00' W 128°30'1318.3 120 / 4 2.9 6.6
2016-Feb-01 15:00N 52°48' W 128°24'412.1 290 / 21018.1 5.4 3.1 1.9-6.6
2016-Feb-01 14:42N 52°48' W 128°30'710.0 250 / 2 3.1 6.6
2016-Feb-01 14:00N 52°42' W 128°36'7 7.0 090 / 31020.1 3.3 2.3 6.6
2016-Feb-01 13:00N 52°36' W 128°30'1212.0 120 / 31020.2 3.1 1.9 6.6
2016-Feb-01 12:00N 52°24' W 128°30'0 0.0 090 / 41020.1 3.4 2.2 6.3
2016-Feb-01 11:44N 52°24' W 128°30'1414.3 130 / 5 3.7 6.7
2016-Feb-01 10:45N 52°12' W 128°18'310.3 190 / 1 4.4 7.0
2016-Feb-01 10:27N 52°14' W 128°15'6 6.5
2016-Feb-01 09:33N 52°10' W 128°08'5 8.1
2016-Feb-01 09:00N 52°06' W 128°06'627.7 020 / 21020.3 3.9 2.3 6.6
2016-Feb-01 08:47N 52°00' W 128°06'617.2 060 / 5 3.8 6.6
2016-Feb-01 08:26N 52°05' W 128°00'613.8
2016-Feb-01 08:00N 52°00' W 127°54'627.7 160 / 41020.6 4.6 2.8 7.4
2016-Feb-01 07:47N 51°54' W 127°54'1 2.7 210 / 3 4.7 7.4
2016-Feb-01 07:22N 51°54' W 127°56'615.8
2016-Feb-01 07:00N 51°48' W 127°54'630.0 320 / 41020.6 5.2 2.8 7.6
2016-Feb-01 06:48N 51°42' W 127°54'6 7.5 340 / 4 5.3 7.4
2016-Feb-01 06:00N 51°36' W 127°54'738.5 020 / 51020.4 5.3 1.7 7.5
2016-Feb-01 05:49N 51°30' W 127°48'2 9.4 030 / 7 5.4 7.5
2016-Feb-01 05:33N 51°31' W 127°52'1912.2
2016-Feb-01 04:00N 51°12' W 127°54'640.0 340 / 141020.0 6.6 2.9 7.8
2016-Feb-01 03:51N 51°06' W 127°54'1 2.4 340 / 13 6.5 7.9
2016-Feb-01 03:26N 51°06' W 127°53'614.2
2016-Feb-01 03:00N 51°00' W 127°48'425.2 350 / 181019.9 6.4 3.6 8.9
2016-Feb-01 02:51N 51°00' W 127°42'310.2 350 / 15 6.7 8.9
2016-Feb-01 02:33N 50°57' W 127°43'610.0
2016-Feb-01 02:00N 50°54' W 127°36'753.2 340 / 181019.4 6.4 3.5 8.4
2016-Feb-01 01:52N 50°48' W 127°30'3 8.6 340 / 18 6.4 8.4
2016-Feb-01 01:33N 50°50' W 127°28'712.2
2016-Feb-01 01:00N 50°48' W 127°18'760.9 310 / 171019.0 6.7 3.1 8.0
2016-Feb-01 00:53N 50°42' W 127°12'5 8.5 310 / 18 6.6 8.0
2016-Feb-01 00:14N 50°44' W 127°04'1143.6
2016-Feb-01 00:00N 50°42' W 126°48'7 6.6 300 / 191016.2 5.4 0.5 7.1 3.5-8.0
2016-Jan-31 22:55N 50°36' W 126°42'1010.6 260 / 19 6.5 8.1
2016-Jan-31 22:00N 50°30' W 126°30'457.2 290 / 151017.2 6.7 3.3 8.1
2016-Jan-31 21:56N 50°30' W 126°24'1112.3 290 / 17 6.7 8.1
2016-Jan-31 21:00N 50°30' W 126°06'672.0 300 / 151016.9 5.8 4.4 8.1
2016-Jan-31 20:55N 50°24' W 126°06'2412.1 300 / 16 5.8 8.0
2016-Jan-31 18:57N 50°18' W 125°30'3 6.5 040 / 4 4.2 8.3
2016-Jan-31 18:26N 50°19' W 125°25'716.1
2016-Jan-31 18:00N 50°12' W 125°24'4115.2 320 / 31016.1 4.4 3.1 8.4
2016-Jan-31 17:58N 50°12' W 125°18'4 9.2 300 / 4 4.4 8.4
2016-Jan-31 17:34N 50°09' W 125°21'4 6.6
2016-Jan-31 17:00N 50°06' W 125°18'0 0.0 250 / 51015.5 4.0 2.8 8.5
2016-Jan-31 16:59N 50°06' W 125°18'1 2.3 270 / 5 4.2 8.5
2016-Jan-31 16:33N 50°05' W 125°17'6 6.2
2016-Jan-31 15:34N 49°60' W 125°13'1211.5
2016-Jan-31 14:34N 49°52' W 124°59'1312.6
2016-Jan-31 13:34N 49°44' W 124°44'1017.1
2016-Jan-31 13:00N 49°36' W 124°36'2 5.4 310 / 71014.5 5.9 4.9 8.0
2016-Jan-31 12:34N 49°35' W 124°33'713.2
2016-Jan-31 12:00N 49°30' W 124°24'510.9 320 / 41014.3 5.9 4.5 7.8
2016-Jan-31 11:34N 49°26' W 124°20'1312.6
2016-Jan-31 10:34N 49°21' W 124°02'1312.9
2016-Jan-31 09:33N 49°15' W 123°44'611.3
2016-Jan-31 09:00N 49°12' W 123°36'613.5 180 / 171013.4 6.9 3.5 7.4
2016-Jan-31 08:33N 49°09' W 123°29'1312.6
2016-Jan-31 07:34N 49°00' W 123°14'1211.9
2016-Jan-31 06:33N 48°53' W 123°00'611.1
2016-Jan-31 06:00N 48°48' W 122°54'612.4 170 / 141014.0 7.1 4.1 8.4
2016-Jan-31 05:33N 48°46' W 122°46'1018.4
2016-Jan-31 05:00N 48°36' W 122°42'2 5.1 190 / 141014.4 6.8 3.3 8.5
2016-Jan-31 04:34N 48°35' W 122°45'1119.8
2016-Jan-31 04:00N 48°24' W 122°42'3 6.4 140 / 121014.7 7.0 3.0 8.5
2016-Jan-31 03:32N 48°22' W 122°45'1018.5
2016-Jan-31 03:00N 48°12' W 122°48'3 5.9 160 / 151014.4 7.4 3.1 8.9
2016-Jan-31 02:33N 48°10' W 122°45'1212.3
2016-Jan-31 01:33N 47°60' W 122°36'712.4
2016-Jan-31 01:00N 47°54' W 122°30'612.8 180 / 161014.7 8.0 2.6 9.2
2016-Jan-31 00:33N 47°49' W 122°27'712.8
2016-Jan-31 00:00N 47°42' W 122°30'614.0 200 / 171014.7 8.5 3.1 9.4
2016-Jan-30 23:33N 47°37' W 122°24'1 2.3
2016-Jan-30 23:00N 47°36' W 122°24'1 3.3 190 / 151014.5 7.9 3.1 9.3
2016-Jan-30 22:33N 47°37' W 122°23'1 2.5
2016-Jan-30 22:00N 47°36' W 122°24'1 3.3 200 / 161014.2 7.3 2.4 9.3
2016-Jan-30 21:33N 47°37' W 122°23'0 0.3
2016-Jan-30 20:33N 47°38' W 122°23'2 3.2
2016-Jan-30 20:00N 47°36' W 122°24'2 4.0 200 / 121014.2 7.0 3.1 8.6
2016-Jan-30 19:33N 47°38' W 122°23'2 3.2
2016-Jan-30 19:00N 47°36' W 122°24'2 3.9 190 / 111014.2 6.1 3.0 8.5
2016-Jan-30 18:33N 47°38' W 122°23'2 3.2
2016-Jan-30 18:00N 47°36' W 122°24'2 4.0 200 / 111013.8 5.5 3.0 8.8
2016-Jan-30 17:33N 47°38' W 122°23'2 3.2
2016-Jan-30 17:00N 47°36' W 122°24'2 4.0 210 / 111013.5 5.2 2.6 8.9
2016-Jan-30 16:33N 47°38' W 122°23'0 0.0
2016-Jan-30 15:33N 47°38' W 122°23'0 0.0
2016-Jan-30 14:33N 47°38' W 122°23'0 0.0
2016-Jan-30 13:33N 47°38' W 122°23'0 0.0
2016-Jan-30 12:33N 47°38' W 122°23'0 0.0
2016-Jan-30 11:33N 47°38' W 122°23'0 0.0
2016-Jan-30 10:33N 47°38' W 122°23'0 0.0
2016-Jan-30 09:33N 47°38' W 122°23'0 0.0
2016-Jan-30 08:33N 47°38' W 122°23'0 0.0
2016-Jan-30 07:33N 47°38' W 122°23'0 0.0
2016-Jan-30 06:33N 47°38' W 122°23'  
Track history (hours):
 
Tides and Currents Weather Stations Pressure Air Temp Water Temp Dewpoint Dewpoint Depression Visibility Wind Speed Wind Dir Waves Ship Positions

Oceanographic research ship Oscar Dyson (USA)

Ship's website: http://www.moc.noaa.gov/od/

Detailed information on ship capabilities available from University of Delaware's Ocean Information Center and ARCUS's ALIAS (Arctic Logistics Information and Support) project.

Last reported at 2016-Feb-09 06:00 UTC. Time now 2016-Feb-09 07:48 UTC.
Position N 59°24' W 149°24'.

Type: Ship. MMSI: 369959000.

Wind from 150 at 13 knots

Barometer 1010.5 mb
Air temperature 5.5 ° C
Dewpoint 2.3 ° C
Water temperature 5.6 ° C

Date/timePositionNaut miles runAvg speedWind from/ knotsBaromVisibWave heightAir tempDewpointWater temp
2016-Feb-09 06:00N 59°24' W 149°24'0 0.0 150 / 131010.5 5.5 2.3 5.6
2016-Feb-09 05:53N 59°24' W 149°24'1213.6 150 / 12 5.5 5.7
2016-Feb-09 05:00N 59°36' W 149°24'0 0.0 160 / 121010.1 5.9 3.3 5.8
2016-Feb-09 04:54N 59°36' W 149°24'1213.3 160 / 12 6.0 5.9
2016-Feb-09 04:00N 59°48' W 149°24'672.0 060 / 161009.6 3.8 1.7 5.9
2016-Feb-09 03:55N 59°42' W 149°24'1213.5 060 / 16 3.9 5.9
2016-Feb-09 03:00N 59°54' W 149°18'336.1 360 / 51010.1 3.7 1.5-4.9
2016-Feb-09 02:55N 59°54' W 149°24'1213.1 360 / 6 3.7 4.9
2016-Feb-09 02:00N 60°06' W 149°24'690.0 050 / 41009.6 3.3 1.8 5.1
2016-Feb-09 01:56N 60°00' W 149°24'6 6.4 060 / 6 3.1 5.0
2016-Feb-09 01:00N 60°06' W 149°24'0 0.0 070 / 51009.4 2.4 0.2 5.4
2016-Feb-09 00:57N 60°06' W 149°24'0 0.0 060 / 5 2.2 5.4
2016-Feb-09 00:00N 60°06' W 149°24'0 0.0 190 / 51009.2 3.9 0.4 5.4
2016-Feb-08 16:00N 60°06' W 149°24'0 0.0 330 / 51008.5 1.0 0.4 5.9
2016-Feb-08 15:00N 60°06' W 149°24'0 0.0 350 / 51008.0 1.6 1.0 6.0
2016-Feb-08 14:43N 60°06' W 149°24'0 0.0 330 / 7 1.4 5.8
2016-Feb-08 14:00N 60°06' W 149°24'0 0.0 050 / 91006.9 1.5 0.9 5.8
2016-Feb-08 13:44N 60°06' W 149°24'6 6.1 010 / 5 1.6 5.3
2016-Feb-08 12:45N 60°00' W 149°24'0 0.0 360 / 8 1.6 5.0
2016-Feb-08 11:00N 60°00' W 149°24'0 0.0 310 / 21005.8 0.5-0.5 4.7
2016-Feb-08 10:47N 60°00' W 149°24'6 7.7 360 / 2 0.7 3.7
2016-Feb-08 10:00N 60°06' W 149°24'731.0 130 / 21005.6 0.3-0.8 5.0
2016-Feb-08 09:47N 60°00' W 149°18'3 3.8 170 / 2 0.3 4.9
2016-Feb-08 09:00N 60°00' W 149°24'0 0.0 010 / 41005.1 1.0-0.6 5.4
2016-Feb-08 08:48N 60°00' W 149°24'3 1.7 360 / 4 1.1 5.1
2016-Feb-08 07:00N 60°00' W 149°18'318.0 330 / 131002.7 5.4 3.8 -5.2
2016-Feb-08 06:50N 60°00' W 149°24'0 0.0 340 / 11 3.0 4.8
2016-Feb-08 06:00N 60°00' W 149°24'320.0 030 / 81004.6 2.8-1.1 5.9
2016-Feb-08 05:51N 60°00' W 149°18'0 0.0 030 / 9 2.7 5.9
2016-Feb-08 03:52N 60°00' W 149°18'7 7.7 350 / 16 4.3 5.9
2016-Feb-08 03:00N 60°06' W 149°24'757.5 010 / 161003.4 4.0-1.8 5.9
2016-Feb-08 02:53N 60°00' W 149°18'3 3.4 010 / 15 3.8 5.9
2016-Feb-08 02:00N 60°00' W 149°24'0 0.0 340 / 221003.0 4.5-2.5 5.0
2016-Feb-08 01:54N 60°00' W 149°24'0 0.0 340 / 20 4.5 5.0
2016-Feb-08 01:00N 60°00' W 149°24'336.0 340 / 211002.8 4.4-2.4 5.8
2016-Feb-08 00:55N 60°00' W 149°18'3 3.3 350 / 23 4.3 5.8
2016-Feb-08 00:00N 60°00' W 149°24'0 0.0 340 / 111002.5 4.5-2.5 5.5
2016-Feb-07 23:00N 60°00' W 149°24'345.0 340 / 191004.2 3.9-3.0 5.6
2016-Feb-07 22:56N 60°00' W 149°18'6 6.4 350 / 19 4.0 5.5
2016-Feb-07 22:00N 59°54' W 149°18'360.2 010 / 131002.8 5.4 0.5 4.9-3.4-5.2
2016-Feb-07 21:57N 59°54' W 149°24'9 9.0 360 / 17 4.9 5.1
2016-Feb-07 21:00N 59°48' W 149°12'6180.0 080 / 241004.7 5.5-2.9 6.1
2016-Feb-07 20:58N 59°42' W 149°12'1212.5 080 / 24 5.6 6.2
2016-Feb-07 20:00N 59°42' W 148°48'0 0.0 060 / 281004.6 4.4-0.5 6.4
2016-Feb-07 19:59N 59°42' W 148°48'1413.8 060 / 27 4.4 6.4
2016-Feb-07 19:00N 59°36' W 148°24'0 0.0 050 / 321004.4 4.4 0.4 6.3
2016-Feb-07 18:59N 59°36' W 148°24'4314.2 050 / 32 4.3 6.3
2016-Feb-07 16:00N 59°36' W 147°00'3 9.1 060 / 311007.0 4.6-0.1 6.6
2016-Feb-07 15:40N 59°36' W 146°54'913.7 070 / 28 4.8 6.5
2016-Feb-07 15:00N 59°36' W 146°36'619.2 070 / 301008.5 4.7 1.1 6.9
2016-Feb-07 14:41N 59°36' W 146°24'913.3 070 / 26 5.2 6.9
2016-Feb-07 14:00N 59°36' W 146°06'3618.2 070 / 281009.8 5.1 1.0 6.6
2016-Feb-07 12:00N 59°36' W 144°54'311.4 090 / 191010.610.8 1.0 5.0 0.4-6.3
2016-Feb-07 11:44N 59°36' W 145°00'912.4 090 / 19 5.1 6.2
2016-Feb-07 11:00N 59°36' W 144°42'311.4 090 / 221013.3 5.0 0.9 6.9
2016-Feb-07 10:44N 59°36' W 144°36'1212.4 090 / 18 4.9 6.9
2016-Feb-07 09:45N 59°36' W 144°12'1621.7 090 / 26 5.8 6.8
2016-Feb-07 09:00N 59°42' W 143°42'313.0 100 / 241015.110.8 1.0 5.5 -6.6
2016-Feb-07 08:46N 59°42' W 143°48'2514.1 100 / 25 5.5 6.6
2016-Feb-07 07:00N 59°48' W 143°00'733.6 090 / 221018.2 4.3 2.0 6.9
2016-Feb-07 06:48N 59°42' W 142°54'1113.6 090 / 19 4.3 7.1
2016-Feb-07 06:00N 59°48' W 142°36'736.6 090 / 191018.6 4.0 2.4 7.0
2016-Feb-07 05:49N 59°42' W 142°30'1515.1 090 / 21 3.8 7.0
2016-Feb-07 04:49N 59°42' W 142°00'1212.3 080 / 25 3.3 7.0
2016-Feb-07 03:50N 59°42' W 141°36'1619.6 090 / 24 3.4 6.8
2016-Feb-07 03:00N 59°36' W 141°06'320.2 080 / 241019.9 5.4 3.2 1.6-6.4
2016-Feb-07 02:51N 59°36' W 141°12'2814.2 080 / 23 3.3 6.4
2016-Feb-07 00:53N 59°30' W 140°18'910.3 120 / 16 4.4 6.8
2016-Feb-07 00:00N 59°30' W 140°00'9 8.5 120 / 221018.2 4.1 2.5 6.4
2016-Feb-06 23:00N 59°36' W 139°48'660.0 130 / 181018.3 3.2 1.9 5.6
2016-Feb-06 22:54N 59°30' W 139°48'0 0.0 130 / 18 3.1 5.6
2016-Feb-06 22:00N 59°30' W 139°48'336.5 130 / 101017.9 2.2 1.4 5.9
2016-Feb-06 21:55N 59°30' W 139°42'3 3.3 130 / 10 2.3 5.9
2016-Feb-06 21:00N 59°30' W 139°48'345.7 120 / 61017.1 1.7 1.0 5.5
2016-Feb-06 20:56N 59°30' W 139°42'3 1.6 120 / 8 1.9 5.5
2016-Feb-06 19:00N 59°30' W 139°48'391.4 140 / 61014.6 1.5 0.9 5.4
2016-Feb-06 18:58N 59°30' W 139°42'3 3.2 130 / 6 1.6 5.4
2016-Feb-06 18:00N 59°30' W 139°48'391.4 120 / 71013.2 0.8 0.2 5.5
2016-Feb-06 17:58N 59°30' W 139°42'3 3.2 110 / 7 0.9 5.5
2016-Feb-06 17:00N 59°30' W 139°48'3182.7 150 / 71011.8 0.8 0.2 5.8
2016-Feb-06 16:59N 59°30' W 139°42'0 0.0 130 / 5 1.0 5.8
2016-Feb-06 16:00N 59°30' W 139°42'3 3.0 120 / 111010.4 0.8 0.2 5.6
2016-Feb-06 15:00N 59°30' W 139°48'0 0.0 120 / 101009.4 0.9 0.2 5.7
2016-Feb-06 14:00N 59°30' W 139°48'0 0.0 110 / 111008.7 1.0 0.1 5.6
2016-Feb-06 13:00N 59°30' W 139°48'3 9.1 110 / 121007.7 1.0-0.0 5.7
2016-Feb-06 12:40N 59°30' W 139°42'3 4.6 120 / 10 1.1 5.6
2016-Feb-06 12:00N 59°30' W 139°36'3 9.6 090 / 131007.2 5.4 0.5 1.8 0.6-5.8
2016-Feb-06 11:41N 59°30' W 139°42'9 3.4 090 / 12 1.9 5.8
2016-Feb-06 09:00N 59°30' W 140°00'311.4 100 / 161004.2 2.2 1.4 6.5
2016-Feb-06 08:44N 59°30' W 139°54'7 9.2 090 / 14 2.4 6.4
2016-Feb-06 08:00N 59°24' W 139°48'311.5 060 / 151003.7 1.7 0.7 6.2
2016-Feb-06 07:44N 59°24' W 139°42'1723.4 070 / 17 1.7 6.4
2016-Feb-06 07:00N 59°12' W 139°18'312.3 140 / 131001.1 5.4 3.7 -6.8
2016-Feb-06 06:45N 59°12' W 139°24'2814.3 140 / 15 4.5 6.6
2016-Feb-06 04:47N 58°54' W 138°42'1114.1 130 / 13 4.2 6.8
2016-Feb-06 04:00N 58°48' W 138°24'0 0.0 120 / 121001.4 3.4 1.6 6.6
2016-Feb-06 03:48N 58°48' W 138°24'1113.9 120 / 13 3.2 6.6
2016-Feb-06 03:00N 58°42' W 138°06'0 0.0 040 / 91001.0 3.0 0.9 6.5
2016-Feb-06 02:49N 58°42' W 138°06'1113.6 050 / 9 3.6 6.5
2016-Feb-06 02:00N 58°36' W 137°48'2613.0 110 / 121000.7 3.2 1.4 6.4
2016-Feb-06 00:00N 58°18' W 137°12'2210.6 040 / 3999.9 3.2 1.4 6.1
2016-Feb-05 21:53N 58°06' W 136°36'1517.3 200 / 11 1.8 6.3
2016-Feb-05 21:00N 58°18' W 136°18'0 0.0 230 / 10999.3 3.6 1.8 6.1
2016-Feb-05 20:54N 58°18' W 136°18'410.2 220 / 10 3.6 6.1
2016-Feb-05 20:30N 58°19' W 136°11'917.3
2016-Feb-05 20:00N 58°18' W 135°54'0 0.0 160 / 6998.9 4.4 2.1 5.6
2016-Feb-05 19:54N 58°18' W 135°54'412.3 190 / 7 4.5 5.6
2016-Feb-05 19:33N 58°18' W 135°46'1323.6
2016-Feb-05 19:00N 58°12' W 135°24'337.9 150 / 13997.0 5.4 3.2 1.9-5.3
2016-Feb-05 18:55N 58°12' W 135°30'6 6.5 150 / 11 3.2 5.3
2016-Feb-05 18:00N 58°06' W 135°30'347.6 190 / 6998.7 2.2 1.5 5.1
2016-Feb-05 17:56N 58°06' W 135°24'3 3.4 190 / 7 2.4 5.1
2016-Feb-05 17:00N 58°06' W 135°30'6120.0 230 / 8998.2 2.4 1.7 5.5
2016-Feb-05 16:57N 58°00' W 135°30'6 6.3 220 / 8 2.4 5.5
2016-Feb-05 16:00N 58°06' W 135°30'6120.0 230 / 6997.9 2.4 1.7 4.8
2016-Feb-05 15:57N 58°00' W 135°30'6 6.3 290 / 6 2.0 5.0
2016-Feb-05 15:00N 58°06' W 135°30'6180.0 220 / 8997.7 3.1 2.4 5.1
2016-Feb-05 14:58N 58°00' W 135°30'6 6.2 220 / 11 2.9 5.0
2016-Feb-05 14:00N 58°06' W 135°30'6360.0 210 / 8997.4 2.7 2.1 5.3
2016-Feb-05 13:59N 58°00' W 135°30'0 0.0 200 / 7 2.8 5.0
2016-Feb-05 13:00N 58°00' W 135°30'3 3.2 210 / 4997.0 3.0 2.4 5.0
2016-Feb-05 12:00N 58°00' W 135°24'7 6.8 210 / 5994.8 5.4 0.5 2.6 2.3-5.3
2016-Feb-05 11:00N 58°06' W 135°30'0 0.0 240 / 6996.2 2.7 2.3 5.5
2016-Feb-05 10:00N 58°06' W 135°30'618.0 170 / 3995.4 2.7 2.1 5.4
2016-Feb-05 09:40N 58°00' W 135°30'6 9.0 230 / 5 2.8 5.4
2016-Feb-05 09:00N 58°06' W 135°30'618.9 200 / 4994.9 3.3 2.6 5.5
2016-Feb-05 08:41N 58°00' W 135°30'6 3.6 220 / 3 3.3 5.4
2016-Feb-05 07:00N 58°06' W 135°30'0 0.0 180 / 2994.7 3.8 2.9 5.6
2016-Feb-05 06:00N 58°06' W 135°30'622.5 300 / 3995.1 3.4 2.5 5.8
2016-Feb-05 05:44N 58°00' W 135°30'6 8.2 300 / 4 3.7 5.8
2016-Feb-05 05:00N 58°06' W 135°30'622.5 310 / 3995.4 3.8 2.9 5.6
2016-Feb-05 04:44N 58°00' W 135°30'3 1.8 310 / 5 3.9 5.6
2016-Feb-05 03:00N 58°00' W 135°24'313.6 340 / 2 5.1 -5.4
2016-Feb-05 02:46N 58°00' W 135°30'0 0.0 350 / 2 5.0 5.4
2016-Feb-05 01:47N 58°00' W 135°30'6 7.7 040 / 2 4.9 5.4
2016-Feb-05 01:00N 58°06' W 135°30'630.0 996.0 5.1 3.0 5.5
2016-Feb-05 00:48N 58°00' W 135°30'6 7.5 270 / 2 5.1 5.4
2016-Feb-05 00:00N 58°06' W 135°30'9 4.0 220 / 8995.6 5.5 2.6 5.4
2016-Feb-04 21:50N 58°12' W 135°18'512.1 110 / 25 5.7 5.4
2016-Feb-04 21:23N 58°15' W 135°27'4 9.5
2016-Feb-04 21:00N 58°18' W 135°30'640.0 110 / 24994.3 5.6 2.4 5.4
2016-Feb-04 20:51N 58°12' W 135°30'3 5.3 110 / 24 5.6 5.4
2016-Feb-04 20:15N 58°15' W 135°28'3 8.2
2016-Feb-04 19:52N 58°12' W 135°30'3 1.7 110 / 24 6.2 5.4
2016-Feb-04 18:00N 58°12' W 135°24'758.1 100 / 23995.0 5.6 2.5 5.5
2016-Feb-04 17:53N 58°06' W 135°18'7 7.7 100 / 23 5.7 5.5
2016-Feb-04 17:00N 58°12' W 135°24'767.8 090 / 24995.7 4.6 2.1 5.5
2016-Feb-04 16:54N 58°06' W 135°18'7 7.5 090 / 22 4.6 5.5
2016-Feb-04 16:00N 58°12' W 135°24'781.4 070 / 22996.6 4.2 2.4 5.5
2016-Feb-04 15:55N 58°06' W 135°18'7 7.4 070 / 24 4.2 5.5
2016-Feb-04 15:00N 58°12' W 135°24'690.0 070 / 22997.8 4.5 2.2 5.4
2016-Feb-04 14:56N 58°06' W 135°24'3 3.2 070 / 23 4.3 5.4
2016-Feb-04 13:57N 58°06' W 135°18'4 6.9 070 / 22 4.6 5.4
2016-Feb-04 13:18N 58°09' W 135°24'3 9.0
2016-Feb-04 13:00N 58°12' W 135°24'6120.0 080 / 211000.1 4.3 1.6 5.4
2016-Feb-04 12:57N 58°06' W 135°24'9 9.2 090 / 19 4.3 5.4
2016-Feb-04 12:00N 58°12' W 135°12'0 0.0 060 / 181001.4 4.4 1.7 5.4
2016-Feb-04 11:58N 58°12' W 135°12'9 9.0 060 / 18 4.7 5.4
2016-Feb-04 11:00N 58°06' W 135°00'0 0.0 050 / 71002.2 4.7 2.2 5.3
2016-Feb-04 10:59N 58°06' W 135°00'9 8.9 070 / 9 4.8 5.3
2016-Feb-04 10:00N 58°00' W 134°48'1212.4 050 / 131002.2 2.9 1.4 5.3
2016-Feb-04 09:00N 57°48' W 134°42'18 6.0 130 / 131000.310.8 0.5 5.1 -5.2
2016-Feb-04 06:00N 57°30' W 134°42'620.0 190 / 81001.9 3.5 2.6 4.9
2016-Feb-04 05:42N 57°24' W 134°42'6 8.6 180 / 7 3.5 4.9
2016-Feb-04 05:00N 57°18' W 134°42'24 8.1 200 / 121001.6 3.2 2.4 5.1
2016-Feb-04 02:00N 56°54' W 134°36'727.4 340 / 31001.4 2.4 1.7 5.6
2016-Feb-04 01:45N 56°48' W 134°30'0 0.0 330 / 3 2.3 5.8
2016-Feb-04 01:00N 56°48' W 134°30'729.3 320 / 31001.1 0.9 0.1 5.5
2016-Feb-04 00:46N 56°42' W 134°24'7 8.9 340 / 3 0.9 5.5
2016-Feb-04 00:00N 56°36' W 134°30'19 9.6 010 / 51000.6 1.6 0.3 6.0
2016-Feb-03 22:00N 56°18' W 134°42'734.3 150 / 10999.6 4.3 2.1 6.3
2016-Feb-03 21:48N 56°12' W 134°36'7 8.6 180 / 10 4.3 6.3
2016-Feb-03 21:00N 56°18' W 134°42'737.4 160 / 10999.3 4.9 2.1 6.4
2016-Feb-03 20:49N 56°12' W 134°36'0 0.0 140 / 7 5.0 6.4
2016-Feb-03 19:50N 56°12' W 134°36'7 8.2 140 / 7 5.0 6.4
2016-Feb-03 19:00N 56°18' W 134°42'745.8 120 / 12999.9 4.8 2.2 6.4
2016-Feb-03 18:51N 56°12' W 134°36'7 8.1 110 / 13 4.9 6.4
2016-Feb-03 18:00N 56°18' W 134°42'745.8 100 / 141000.4 5.0 2.2 6.4
2016-Feb-03 17:51N 56°12' W 134°36'7 8.1 110 / 15 5.1 6.4
2016-Feb-03 17:00N 56°18' W 134°42'751.5 100 / 171001.0 5.1 1.9 6.4
2016-Feb-03 16:52N 56°12' W 134°36'7 7.9 110 / 17 5.1 6.4
2016-Feb-03 16:00N 56°18' W 134°42'758.8 110 / 151001.8 5.3 1.8 6.4
2016-Feb-03 15:53N 56°12' W 134°36'3 3.8 110 / 15 5.3 6.4
2016-Feb-03 15:00N 56°12' W 134°30'333.4 110 / 131003.1 5.2 2.1-6.3
2016-Feb-03 14:54N 56°12' W 134°36'6 6.7 100 / 16 5.2 6.3
2016-Feb-03 14:00N 56°18' W 134°36'672.0 100 / 201004.0 5.6 1.8 6.4
2016-Feb-03 13:55N 56°12' W 134°36'6 6.5 100 / 18 5.6 6.4
2016-Feb-03 13:00N 56°18' W 134°36'672.0 100 / 151005.0 5.4 1.9 6.3
2016-Feb-03 12:55N 56°12' W 134°36'6 6.5 100 / 15 5.4 6.3
2016-Feb-03 12:00N 56°18' W 134°36'690.0 110 / 151006.0 5.9 1.5 6.4
2016-Feb-03 11:56N 56°12' W 134°36'6 6.4 110 / 16 5.7 6.4
2016-Feb-03 11:00N 56°18' W 134°36'6120.0 120 / 131007.0 5.9 1.2 6.3
2016-Feb-03 10:57N 56°12' W 134°36'6 6.3 120 / 13 5.9 6.3
2016-Feb-03 10:00N 56°18' W 134°36'6180.0 110 / 151007.7 5.9 1.4 6.4
2016-Feb-03 09:58N 56°12' W 134°36'6 6.2 100 / 12 5.9 6.4
2016-Feb-03 09:00N 56°18' W 134°36'6360.0 120 / 151008.5 5.8 1.7 6.4
2016-Feb-03 08:59N 56°12' W 134°36'3 3.4 110 / 16 5.7 6.4
2016-Feb-03 08:00N 56°12' W 134°30'9 9.0 110 / 231008.6 5.6 1.7 6.9
2016-Feb-03 07:00N 56°06' W 134°18'1514.7 100 / 261009.1 5.2 2.2 6.8
2016-Feb-03 06:00N 56°00' W 133°54'0 0.0 110 / 201010.2 5.2 1.9 6.6
2016-Feb-03 05:52N 56°00' W 133°54'1214.4 110 / 21 5.2 6.6
2016-Feb-03 05:00N 56°12' W 133°48'0 0.0 120 / 251011.0 5.3 1.6 6.6
2016-Feb-03 04:53N 56°12' W 133°48'1617.7 120 / 25 5.2 6.6
2016-Feb-03 04:00N 56°24' W 133°30'660.0 100 / 191012.9 5.4 1.3 6.5
2016-Feb-03 03:54N 56°18' W 133°30'1212.9 100 / 18 5.1 6.5
2016-Feb-03 03:00N 56°24' W 133°12'672.0 130 / 181014.1 6.3 1.2 6.6
2016-Feb-03 02:55N 56°18' W 133°12'1010.9 140 / 18 6.0 6.6
2016-Feb-03 02:00N 56°18' W 132°54'690.0 120 / 131014.7 5.4 1.0 6.5
2016-Feb-03 01:56N 56°12' W 132°54'7 7.4 120 / 13 5.4 6.5
2016-Feb-03 01:00N 56°06' W 132°48'0 0.0 140 / 231014.8 5.5 1.3 6.4
2016-Feb-03 00:57N 56°06' W 132°48'7 7.2 140 / 23 5.5 6.4
2016-Feb-03 00:00N 56°00' W 132°42'1615.7 120 / 221016.0 4.7 1.9 6.5
2016-Feb-02 23:00N 55°48' W 132°24'0 0.0 090 / 171016.7 4.4 1.7 6.4
2016-Feb-02 22:58N 55°48' W 132°24'1212.9 100 / 20 4.1 6.3
2016-Feb-02 22:00N 55°36' W 132°18'0 0.0 140 / 171017.0 4.5 1.9 6.4
2016-Feb-02 21:59N 55°36' W 132°18'1818.4 140 / 17 4.8 6.5
2016-Feb-02 21:00N 55°24' W 131°54'3 3.4 110 / 191017.7 5.4 5.7 -6.1
2016-Feb-02 20:00N 55°24' W 131°48'9 9.1 120 / 31018.4 4.0 0.9 6.3
2016-Feb-02 19:00N 55°18' W 131°36'720.7 100 / 141018.7 4.2 1.9 6.7
2016-Feb-02 18:40N 55°12' W 131°30'6 9.0 070 / 13 3.4 5.8
2016-Feb-02 18:00N 55°18' W 131°30'310.8 060 / 91018.9 3.5 1.7 6.4
2016-Feb-02 17:41N 55°18' W 131°24'3 5.0 060 / 8 3.5 6.5
2016-Feb-02 17:00N 55°18' W 131°30'7 3.4 060 / 51019.2 2.7 1.0 6.9
2016-Feb-02 15:00N 55°18' W 131°18'312.1 040 / 91017.6 5.4 2.9 1.0-6.8
2016-Feb-02 14:43N 55°18' W 131°24'3 2.0 040 / 8 2.8 6.9
2016-Feb-02 13:00N 55°18' W 131°30'7 6.8 040 / 91019.9 2.8 1.3 7.4
2016-Feb-02 12:00N 55°18' W 131°18'314.6 040 / 51018.4 5.4 2.7 1.2-7.0
2016-Feb-02 11:46N 55°18' W 131°24'3 4.5 050 / 4 2.6 7.0
2016-Feb-02 11:00N 55°18' W 131°30'315.8 090 / 41020.1 2.5 1.0 6.5
2016-Feb-02 10:47N 55°18' W 131°24'3 4.4 070 / 5 2.6 6.3
2016-Feb-02 10:00N 55°18' W 131°30'317.1 040 / 111020.0 2.6 1.3 7.0
2016-Feb-02 09:48N 55°18' W 131°24'3 4.3 040 / 10 2.5 7.2
2016-Feb-02 09:00N 55°18' W 131°18'317.1 050 / 51018.2 5.4 4.2 1.1-6.9
2016-Feb-02 08:48N 55°18' W 131°24'7 3.8 030 / 6 2.7 6.8
2016-Feb-02 07:00N 55°12' W 131°18'741.5 300 / 21019.7 3.4 1.8 5.5
2016-Feb-02 06:50N 55°06' W 131°12'3 4.1 260 / 3 3.4 5.5
2016-Feb-02 06:00N 55°06' W 131°06'0 0.0 030 / 101019.4 3.3 1.5 6.1
2016-Feb-02 05:51N 55°06' W 131°06'6 7.1 030 / 9 3.3 6.0
2016-Feb-02 05:00N 55°00' W 131°06'325.8 070 / 91019.2 3.4 1.8 5.8
2016-Feb-02 04:52N 55°00' W 131°00'6 6.9 070 / 9 3.5 5.7
2016-Feb-02 04:00N 54°54' W 131°00'651.4 100 / 71019.1 4.6 1.9 6.6
2016-Feb-02 03:53N 54°48' W 131°00'910.4 100 / 7 4.5 6.6
2016-Feb-02 03:00N 54°42' W 130°48'0 0.0 060 / 121019.1 4.2 2.2 7.5
2016-Feb-02 02:53N 54°42' W 130°48'910.4 060 / 13 4.1 7.5
2016-Feb-02 02:00N 54°36' W 130°36'769.4 110 / 71019.1 5.3 1.3 6.9
2016-Feb-02 01:54N 54°30' W 130°30'1213.9 100 / 7 5.3 6.9
2016-Feb-02 01:00N 54°18' W 130°36'1413.9 110 / 91019.1 5.2 1.2 7.0
2016-Feb-02 00:00N 54°06' W 130°24'9 9.3 110 / 121019.2 4.7 1.7 7.1
2016-Feb-01 23:00N 54°00' W 130°12'1413.9 130 / 131019.5 5.0 1.7 6.3
2016-Feb-01 22:00N 53°48' W 130°00'4411.0 140 / 131019.8 4.2 2.4 6.4
2016-Feb-01 18:00N 53°18' W 129°06'2210.8 070 / 61019.5 3.7 2.5 6.5
2016-Feb-01 16:00N 53°06' W 128°36'722.1 100 / 71019.8 2.5 1.7 6.6
2016-Feb-01 15:41N 53°00' W 128°30'1318.3 120 / 4 2.9 6.6
2016-Feb-01 15:00N 52°48' W 128°24'412.1 290 / 21018.1 5.4 3.1 1.9-6.6
2016-Feb-01 14:42N 52°48' W 128°30'710.0 250 / 2 3.1 6.6
2016-Feb-01 14:00N 52°42' W 128°36'7 7.0 090 / 31020.1 3.3 2.3 6.6
2016-Feb-01 13:00N 52°36' W 128°30'1212.0 120 / 31020.2 3.1 1.9 6.6
2016-Feb-01 12:00N 52°24' W 128°30'0 0.0 090 / 41020.1 3.4 2.2 6.3
2016-Feb-01 11:44N 52°24' W 128°30'1414.3 130 / 5 3.7 6.7
2016-Feb-01 10:45N 52°12' W 128°18'310.3 190 / 1 4.4 7.0
2016-Feb-01 10:27N 52°14' W 128°15'6 6.5
2016-Feb-01 09:33N 52°10' W 128°08'5 8.1
2016-Feb-01 09:00N 52°06' W 128°06'627.7 020 / 21020.3 3.9 2.3 6.6
2016-Feb-01 08:47N 52°00' W 128°06'617.2 060 / 5 3.8 6.6
2016-Feb-01 08:26N 52°05' W 128°00'613.8
2016-Feb-01 08:00N 52°00' W 127°54'627.7 160 / 41020.6 4.6 2.8 7.4
2016-Feb-01 07:47N 51°54' W 127°54'1 2.7 210 / 3 4.7 7.4
2016-Feb-01 07:22N 51°54' W 127°56'615.8
2016-Feb-01 07:00N 51°48' W 127°54'630.0 320 / 41020.6 5.2 2.8 7.6
2016-Feb-01 06:48N 51°42' W 127°54'6 7.5 340 / 4 5.3 7.4
2016-Feb-01 06:00N 51°36' W 127°54'738.5 020 / 51020.4 5.3 1.7 7.5
2016-Feb-01 05:49N 51°30' W 127°48'2 9.4 030 / 7 5.4 7.5
2016-Feb-01 05:33N 51°31' W 127°52'1912.2
2016-Feb-01 04:00N 51°12' W 127°54'640.0 340 / 141020.0 6.6 2.9 7.8
2016-Feb-01 03:51N 51°06' W 127°54'1 2.4 340 / 13 6.5 7.9
2016-Feb-01 03:26N 51°06' W 127°53'614.2
2016-Feb-01 03:00N 51°00' W 127°48'425.2 350 / 181019.9 6.4 3.6 8.9
2016-Feb-01 02:51N 51°00' W 127°42'310.2 350 / 15 6.7 8.9
2016-Feb-01 02:33N 50°57' W 127°43'610.0
2016-Feb-01 02:00N 50°54' W 127°36'753.2 340 / 181019.4 6.4 3.5 8.4
2016-Feb-01 01:52N 50°48' W 127°30'3 8.6 340 / 18 6.4 8.4
2016-Feb-01 01:33N 50°50' W 127°28'712.2
2016-Feb-01 01:00N 50°48' W 127°18'760.9 310 / 171019.0 6.7 3.1 8.0
2016-Feb-01 00:53N 50°42' W 127°12'5 8.5 310 / 18 6.6 8.0
2016-Feb-01 00:14N 50°44' W 127°04'1143.6
2016-Feb-01 00:00N 50°42' W 126°48'7 6.6 300 / 191016.2 5.4 0.5 7.1 3.5-8.0
2016-Jan-31 22:55N 50°36' W 126°42'1010.6 260 / 19 6.5 8.1
2016-Jan-31 22:00N 50°30' W 126°30'457.2 290 / 151017.2 6.7 3.3 8.1
2016-Jan-31 21:56N 50°30' W 126°24'1112.3 290 / 17 6.7 8.1
2016-Jan-31 21:00N 50°30' W 126°06'672.0 300 / 151016.9 5.8 4.4 8.1
2016-Jan-31 20:55N 50°24' W 126°06'2412.1 300 / 16 5.8 8.0
2016-Jan-31 18:57N 50°18' W 125°30'3 6.5 040 / 4 4.2 8.3
2016-Jan-31 18:26N 50°19' W 125°25'716.1
2016-Jan-31 18:00N 50°12' W 125°24'4115.2 320 / 31016.1 4.4 3.1 8.4
2016-Jan-31 17:58N 50°12' W 125°18'4 9.2 300 / 4 4.4 8.4
2016-Jan-31 17:34N 50°09' W 125°21'4 6.6
2016-Jan-31 17:00N 50°06' W 125°18'0 0.0 250 / 51015.5 4.0 2.8 8.5
2016-Jan-31 16:59N 50°06' W 125°18'1 2.3 270 / 5 4.2 8.5
2016-Jan-31 16:33N 50°05' W 125°17'6 6.2
2016-Jan-31 15:34N 49°60' W 125°13'1211.5
2016-Jan-31 14:34N 49°52' W 124°59'1312.6
2016-Jan-31 13:34N 49°44' W 124°44'1017.1
2016-Jan-31 13:00N 49°36' W 124°36'2 5.4 310 / 71014.5 5.9 4.9 8.0
2016-Jan-31 12:34N 49°35' W 124°33'713.2
2016-Jan-31 12:00N 49°30' W 124°24'510.9 320 / 41014.3 5.9 4.5 7.8
2016-Jan-31 11:34N 49°26' W 124°20'1312.6
2016-Jan-31 10:34N 49°21' W 124°02'1312.9
2016-Jan-31 09:33N 49°15' W 123°44'611.3
2016-Jan-31 09:00N 49°12' W 123°36'613.5 180 / 171013.4 6.9 3.5 7.4
2016-Jan-31 08:33N 49°09' W 123°29'1312.6
2016-Jan-31 07:34N 49°00' W 123°14'1211.9
2016-Jan-31 06:33N 48°53' W 123°00'611.1
2016-Jan-31 06:00N 48°48' W 122°54'612.4 170 / 141014.0 7.1 4.1 8.4
2016-Jan-31 05:33N 48°46' W 122°46'1018.4
2016-Jan-31 05:00N 48°36' W 122°42'2 5.1 190 / 141014.4 6.8 3.3 8.5
2016-Jan-31 04:34N 48°35' W 122°45'1119.8
2016-Jan-31 04:00N 48°24' W 122°42'3 6.4 140 / 121014.7 7.0 3.0 8.5
2016-Jan-31 03:32N 48°22' W 122°45'1018.5
2016-Jan-31 03:00N 48°12' W 122°48'3 5.9 160 / 151014.4 7.4 3.1 8.9
2016-Jan-31 02:33N 48°10' W 122°45'1212.3
2016-Jan-31 01:33N 47°60' W 122°36'712.4
2016-Jan-31 01:00N 47°54' W 122°30'612.8 180 / 161014.7 8.0 2.6 9.2
2016-Jan-31 00:33N 47°49' W 122°27'712.8
2016-Jan-31 00:00N 47°42' W 122°30'614.0 200 / 171014.7 8.5 3.1 9.4
2016-Jan-30 23:33N 47°37' W 122°24'1 2.3
2016-Jan-30 23:00N 47°36' W 122°24'1 3.3 190 / 151014.5 7.9 3.1 9.3
2016-Jan-30 22:33N 47°37' W 122°23'1 2.5
2016-Jan-30 22:00N 47°36' W 122°24'1 3.3 200 / 161014.2 7.3 2.4 9.3
2016-Jan-30 21:33N 47°37' W 122°23'0 0.3
2016-Jan-30 20:33N 47°38' W 122°23'2 3.2
2016-Jan-30 20:00N 47°36' W 122°24'2 4.0 200 / 121014.2 7.0 3.1 8.6
2016-Jan-30 19:33N 47°38' W 122°23'2 3.2
2016-Jan-30 19:00N 47°36' W 122°24'2 3.9 190 / 111014.2 6.1 3.0 8.5
2016-Jan-30 18:33N 47°38' W 122°23'2 3.2
2016-Jan-30 18:00N 47°36' W 122°24'2 4.0 200 / 111013.8 5.5 3.0 8.8
2016-Jan-30 17:33N 47°38' W 122°23'2 3.2
2016-Jan-30 17:00N 47°36' W 122°24'2 4.0 210 / 111013.5 5.2 2.6 8.9
2016-Jan-30 16:33N 47°38' W 122°23'0 0.0
2016-Jan-30 15:33N 47°38' W 122°23'0 0.0
2016-Jan-30 14:33N 47°38' W 122°23'0 0.0
2016-Jan-30 13:33N 47°38' W 122°23'0 0.0
2016-Jan-30 12:33N 47°38' W 122°23'0 0.0
2016-Jan-30 11:33N 47°38' W 122°23'0 0.0
2016-Jan-30 10:33N 47°38' W 122°23'0 0.0
2016-Jan-30 09:33N 47°38' W 122°23'0 0.0
2016-Jan-30 08:33N 47°38' W 122°23'0 0.0
2016-Jan-30 07:33N 47°38' W 122°23'0 0.0
2016-Jan-30 06:33N 47°38' W 122°23'  

Dump ship's entire track history